createdAt,value
2018-07-23T00:02:30.778Z,24.10
2018-07-23T00:07:33.834Z,24.40
2018-07-23T00:12:37.073Z,25.30
2018-07-23T00:17:40.105Z,24.60
2018-07-23T00:22:43.118Z,24.80
2018-07-23T00:27:46.295Z,24.70
2018-07-23T00:32:49.302Z,24.20
2018-07-23T00:37:52.360Z,24.30
2018-07-23T00:42:55.355Z,23.80
2018-07-23T00:47:58.380Z,24.30
2018-07-23T00:53:01.447Z,24.40
2018-07-23T00:58:04.611Z,23.70
2018-07-23T01:03:07.928Z,24.20
2018-07-23T01:08:10.965Z,24.00
2018-07-23T01:13:14.144Z,24.40
2018-07-23T01:18:17.359Z,23.90
2018-07-23T01:23:20.486Z,24.40
2018-07-23T01:28:23.664Z,24.80
2018-07-23T01:33:26.944Z,26.00
2018-07-23T01:38:29.997Z,24.70
2018-07-23T01:43:33.082Z,24.60
2018-07-23T01:48:36.710Z,23.60
2018-07-23T01:53:39.719Z,23.90
2018-07-23T01:58:42.687Z,22.50
2018-07-23T02:03:45.924Z,21.60
2018-07-23T02:08:49.237Z,24.70
2018-07-23T02:13:52.291Z,23.80
2018-07-23T02:18:55.340Z,23.40
2018-07-23T02:23:58.325Z,23.90
2018-07-23T02:29:01.343Z,23.70
2018-07-23T02:34:04.424Z,23.50
2018-07-23T02:39:09.807Z,22.70
2018-07-23T02:44:12.993Z,23.90
2018-07-23T02:49:16.011Z,23.10
2018-07-23T02:54:19.051Z,21.60
2018-07-23T02:59:22.492Z,23.10
2018-07-23T03:04:25.521Z,25.70
2018-07-23T03:09:28.557Z,25.00
2018-07-23T03:14:31.542Z,23.50
2018-07-23T03:19:34.550Z,24.30
2018-07-23T03:24:37.552Z,24.70
2018-07-23T03:29:40.551Z,24.80
2018-07-23T03:34:43.550Z,25.00
2018-07-23T03:39:46.571Z,25.10
2018-07-23T03:44:49.551Z,24.20
2018-07-23T03:49:52.559Z,24.10
2018-07-23T03:54:55.507Z,24.00
2018-07-23T03:59:58.503Z,23.70
2018-07-23T04:05:01.513Z,22.60
2018-07-23T04:10:05.118Z,22.30
2018-07-23T04:15:08.074Z,24.00
2018-07-23T04:20:11.571Z,21.00
2018-07-23T04:25:15.373Z,19.30
2018-07-23T04:30:18.686Z,19.10
2018-07-23T04:35:21.816Z,17.10
2018-07-23T04:40:24.822Z,17.10
2018-07-23T04:45:27.871Z,16.00
2018-07-23T04:50:31.372Z,12.40
2018-07-23T04:55:34.710Z,10.70
2018-07-23T05:00:37.667Z,9.00
2018-07-23T05:05:40.660Z,9.60
2018-07-23T05:10:43.648Z,7.80
2018-07-23T05:15:46.627Z,7.10
2018-07-23T05:20:49.832Z,7.50
2018-07-23T05:25:53.038Z,5.30
2018-07-23T05:30:56.107Z,5.50
2018-07-23T05:35:59.131Z,8.40
2018-07-23T05:41:02.122Z,9.10
2018-07-23T05:46:05.215Z,12.30
2018-07-23T05:51:08.477Z,14.20
2018-07-23T05:56:11.472Z,9.90
2018-07-23T06:01:14.527Z,7.10
2018-07-23T06:06:17.718Z,2.00
2018-07-23T06:11:20.806Z,1.00
2018-07-23T06:16:23.808Z,1.00
2018-07-23T06:21:26.908Z,1.00
2018-07-23T06:26:29.924Z,1.00
2018-07-23T06:31:32.929Z,1.00
2018-07-23T06:36:36.123Z,1.00
2018-07-23T06:41:39.939Z,1.00
2018-07-23T06:46:43.157Z,1.00
2018-07-23T06:51:46.167Z,1.00
2018-07-23T06:56:49.127Z,1.00
2018-07-23T07:01:52.109Z,1.00
2018-07-23T07:06:55.107Z,1.00
2018-07-23T07:11:58.112Z,1.00
2018-07-23T07:17:01.063Z,1.00
2018-07-23T07:22:04.158Z,1.00
2018-07-23T07:27:07.758Z,1.00
2018-07-23T07:32:11.113Z,1.00
2018-07-23T07:37:14.181Z,1.00
2018-07-23T07:42:17.126Z,1.00
2018-07-23T07:47:20.343Z,1.00
2018-07-23T07:52:23.461Z,1.00
2018-07-23T07:57:26.539Z,1.00
2018-07-23T08:02:29.621Z,1.00
2018-07-23T08:07:32.600Z,1.00
2018-07-23T08:12:35.896Z,1.00
2018-07-23T08:22:41.916Z,1.00
2018-07-23T08:27:45.103Z,1.00
2018-07-23T08:32:48.238Z,1.00
2018-07-23T08:37:51.219Z,1.00
2018-07-23T08:42:54.396Z,1.00
2018-07-23T08:47:57.604Z,1.00
2018-07-23T08:53:00.566Z,1.00
2018-07-23T08:58:03.652Z,1.00
2018-07-23T09:03:06.855Z,1.00
2018-07-23T09:08:09.983Z,1.00
2018-07-23T09:13:12.989Z,1.00
2018-07-23T09:18:16.012Z,1.00
2018-07-23T09:23:19.034Z,1.00
2018-07-23T09:28:22.115Z,1.00
2018-07-23T09:33:25.419Z,1.00
2018-07-23T09:38:28.421Z,1.00
2018-07-23T09:43:31.525Z,1.00
2018-07-23T09:48:34.594Z,1.00
2018-07-23T09:53:37.612Z,1.00
2018-07-23T09:58:40.610Z,1.00
2018-07-23T10:03:43.606Z,1.00
2018-07-23T10:08:46.626Z,1.00
2018-07-23T10:13:49.703Z,1.00
2018-07-23T10:18:52.731Z,1.00
2018-07-23T10:23:55.700Z,1.00
2018-07-23T10:28:58.668Z,1.00
2018-07-23T10:34:01.941Z,1.00
2018-07-23T10:39:07.724Z,1.00
2018-07-23T10:44:10.769Z,1.00
2018-07-23T10:49:13.751Z,1.00
2018-07-23T10:54:16.769Z,1.00
2018-07-23T10:59:20.006Z,1.00
2018-07-23T11:04:23.285Z,1.00
2018-07-23T11:09:26.423Z,1.00
2018-07-23T11:14:29.408Z,1.00
2018-07-23T11:19:32.431Z,1.00
2018-07-23T11:24:35.721Z,1.00
2018-07-23T11:29:39.617Z,1.00
2018-07-23T11:34:42.806Z,1.00
2018-07-23T11:39:45.806Z,1.00
2018-07-23T11:44:48.992Z,1.00
2018-07-23T11:49:51.988Z,1.00
2018-07-23T11:54:55.159Z,1.00
2018-07-23T11:59:58.495Z,1.00
2018-07-23T12:05:01.550Z,1.00
2018-07-23T12:10:04.859Z,1.00
2018-07-23T12:15:08.063Z,1.00
2018-07-23T12:20:11.139Z,1.00
2018-07-23T12:25:14.172Z,1.00
2018-07-23T12:30:17.205Z,1.00
2018-07-23T12:35:20.475Z,1.00
2018-07-23T12:40:23.987Z,1.00
2018-07-23T12:45:27.304Z,1.00
2018-07-23T12:50:30.308Z,1.00
2018-07-23T12:55:33.345Z,1.00
2018-07-23T13:00:36.406Z,1.00
2018-07-23T13:05:39.365Z,1.00
2018-07-23T13:10:42.350Z,1.00
2018-07-23T13:15:45.375Z,1.00
2018-07-23T13:20:48.449Z,1.00
2018-07-23T13:25:51.623Z,1.00
2018-07-23T13:30:54.543Z,1.00
2018-07-23T13:35:57.599Z,1.00
2018-07-23T13:41:00.576Z,1.00
2018-07-23T13:51:06.788Z,1.00
2018-07-23T13:56:09.828Z,1.00
2018-07-23T14:01:13.022Z,1.00
2018-07-23T14:06:16.009Z,1.00
2018-07-23T14:16:22.386Z,1.00
2018-07-23T14:21:25.498Z,1.00
2018-07-23T14:26:28.576Z,1.00
2018-07-23T14:31:31.553Z,1.00
2018-07-23T14:36:35.023Z,1.00
2018-07-23T14:41:38.514Z,1.00
2018-07-23T14:46:41.614Z,1.00
2018-07-23T14:51:44.748Z,1.00
2018-07-23T14:56:47.691Z,1.00
2018-07-23T15:01:50.667Z,1.00
2018-07-23T15:06:53.822Z,1.00
2018-07-23T15:11:56.881Z,1.00
2018-07-23T15:16:59.943Z,1.00
2018-07-23T15:22:03.003Z,1.00
2018-07-23T15:27:05.982Z,1.00
2018-07-23T15:32:09.031Z,1.00
2018-07-23T15:37:12.055Z,1.00
2018-07-23T15:42:15.098Z,1.00
2018-07-23T15:47:18.026Z,1.00
2018-07-23T15:52:21.100Z,1.00
2018-07-23T15:57:24.071Z,1.00
2018-07-23T16:02:27.080Z,1.00
2018-07-23T16:07:30.424Z,1.00
2018-07-23T16:12:33.631Z,1.00
2018-07-23T16:17:36.807Z,1.00
2018-07-23T16:22:39.939Z,1.00
2018-07-23T16:27:42.972Z,1.00
2018-07-23T16:32:46.052Z,1.00
2018-07-23T16:37:49.481Z,1.00
2018-07-23T16:42:52.525Z,1.00
2018-07-23T16:47:55.559Z,1.00
2018-07-23T16:52:58.589Z,1.00
2018-07-23T16:58:01.637Z,1.00
2018-07-23T17:03:05.195Z,1.00
2018-07-23T17:08:08.531Z,1.00
2018-07-23T17:13:12.000Z,1.00
2018-07-23T17:18:15.148Z,1.00
2018-07-23T17:23:18.172Z,1.00
2018-07-23T17:28:21.356Z,1.00
2018-07-23T17:33:24.451Z,1.00
2018-07-23T17:38:27.519Z,1.00
2018-07-23T17:43:30.580Z,1.00
2018-07-23T17:48:33.836Z,1.00
2018-07-23T17:53:37.073Z,1.00
2018-07-23T17:58:40.085Z,1.00
2018-07-23T18:03:44.368Z,1.00
2018-07-23T18:08:47.577Z,1.00
2018-07-23T18:13:50.699Z,1.00
2018-07-23T18:18:53.707Z,1.00
2018-07-23T18:23:56.760Z,1.00
2018-07-23T18:28:59.815Z,1.00
2018-07-23T18:34:03.081Z,1.00
2018-07-23T18:39:09.673Z,1.00
2018-07-23T18:44:12.796Z,1.00
2018-07-23T18:49:36.548Z,1.00
2018-07-23T18:54:40.588Z,1.00
2018-07-23T18:59:43.855Z,1.00
2018-07-23T19:04:47.217Z,1.00
2018-07-23T19:09:50.354Z,1.00
2018-07-23T19:14:53.399Z,1.00
2018-07-23T19:19:56.752Z,1.00
2018-07-23T19:30:03.780Z,1.00
2018-07-23T19:40:09.807Z,1.00
2018-07-23T19:45:12.996Z,1.00
2018-07-23T19:50:16.061Z,1.00
2018-07-23T19:55:19.395Z,1.00
2018-07-23T20:00:22.613Z,1.00
2018-07-23T20:05:25.754Z,1.00
2018-07-23T20:10:28.804Z,1.00
2018-07-23T20:15:32.042Z,1.00
2018-07-23T20:20:35.092Z,1.00
2018-07-23T20:25:38.216Z,1.00
2018-07-23T20:30:41.562Z,1.00
2018-07-23T20:35:44.868Z,1.00
2018-07-23T20:40:47.905Z,1.00
2018-07-23T20:45:51.031Z,1.00
2018-07-23T20:50:54.704Z,1.00
2018-07-23T20:55:58.022Z,1.00
2018-07-23T21:01:01.040Z,1.00
2018-07-23T21:06:04.479Z,1.00
2018-07-23T21:11:07.567Z,1.00
2018-07-23T21:16:10.602Z,1.00
2018-07-23T21:21:13.908Z,1.00
2018-07-23T21:26:17.267Z,1.00
2018-07-23T21:31:20.356Z,1.00
2018-07-23T21:36:23.392Z,1.00
2018-07-23T21:41:26.498Z,1.00
2018-07-23T21:51:32.795Z,1.00
2018-07-23T21:56:35.824Z,1.00
2018-07-23T22:01:38.984Z,1.00
2018-07-23T22:06:42.424Z,1.00
2018-07-23T22:11:45.469Z,1.00
2018-07-23T22:16:48.484Z,1.00
2018-07-23T22:21:51.508Z,1.00
2018-07-23T22:26:54.595Z,1.00
2018-07-23T22:31:57.615Z,1.00
2018-07-23T22:37:00.639Z,1.00
2018-07-23T22:42:04.072Z,1.00
2018-07-23T22:47:07.779Z,1.00
2018-07-23T22:52:10.787Z,1.00
2018-07-23T22:57:13.780Z,1.00
2018-07-23T23:02:16.773Z,1.00
2018-07-23T23:07:20.100Z,1.00
2018-07-23T23:12:23.155Z,1.00
2018-07-23T23:17:26.187Z,1.00
2018-07-23T23:22:29.176Z,1.00
2018-07-23T23:27:32.225Z,1.00
2018-07-23T23:32:35.336Z,1.00
2018-07-23T23:37:38.382Z,1.00
2018-07-23T23:42:41.480Z,1.00
2018-07-23T23:47:44.513Z,1.00
2018-07-23T23:52:47.852Z,1.00
2018-07-23T23:57:50.949Z,1.00
